^^
Station Historical Data
Daily Summary for August 2, 2017 Units:  Metric    English   Both
« Previous Day
Next Day »
Daily Weekly Monthly Yearly Custom
  High: Low: Average:
Temperature: 26.1 °C 5.2 °C 12.5 °C
Dew Point: 5.3 °C -0.8 °C 2.8 °C
Humidity: 82% 18% 57%
Wind Speed: 17.7km/h 0km/h 1.3km/h
Wind Gust: 22.5km/h - -
Wind- - West
Pressure: 1022.9 hPa 1019.2 hPa -
Precipitation: 0 mm    
Historical Graphs
 
 
Tabular Data for August 2, 2017
Time Temperature Dew Point Pressure Wind Wind Speed Wind Gust Humidity Rainfall Rate (Hourly) solar Conditions
00:16 10 °C 5 °C 1020.5 hPa Calm     71% 0 mm 0.0 W/m2
00:21 9.9 °C 5.3 °C 1020.5 hPa Calm     73% 0 mm 0.0 W/m2
00:26 9.9 °C 5.3 °C 1020.5 hPa Calm     73% 0 mm 0.0 W/m2
00:31 9.9 °C 5.3 °C 1020.5 hPa Calm     73% 0 mm 0.0 W/m2
00:36 9.8 °C 5 °C 1020.5 hPa Calm     72% 0 mm 0.0 W/m2
00:41 9.6 °C 5 °C 1020.5 hPa Calm     73% 0 mm 0.0 W/m2
00:46 9.6 °C 5.2 °C 1020.5 hPa Calm     74% 0 mm 0.0 W/m2
00:52 9.6 °C 5.2 °C 1020.5 hPa Calm     74% 0 mm 0.0 W/m2
00:57 9.6 °C 5.2 °C 1020.5 hPa Calm     74% 0 mm 0.0 W/m2
01:02 9.6 °C 5.2 °C 1020.2 hPa Calm     74% 0 mm 0.0 W/m2
01:07 9.5 °C 5.1 °C 1020.2 hPa Calm     74% 0 mm 0.0 W/m2
01:12 9.3 °C 4.9 °C 1020.2 hPa Calm     74% 0 mm 0.0 W/m2
01:18 9.1 °C 4.5 °C 1020.2 hPa Calm     73% 0 mm 0.0 W/m2
01:23 9 °C 4.6 °C 1020.2 hPa Calm     74% 0 mm 0.0 W/m2
01:28 8.8 °C 4.6 °C 1020.2 hPa Calm     75% 0 mm 0.0 W/m2
01:33 8.7 °C 4.7 °C 1020.2 hPa Calm     76% 0 mm 0.0 W/m2
01:38 8.6 °C 4.6 °C 1020.2 hPa Calm     76% 0 mm 0.0 W/m2
01:49 8.6 °C 4.8 °C 1019.9 hPa Calm     77% 0 mm 0.0 W/m2
01:54 8.6 °C 4.8 °C 1019.9 hPa Calm     77% 0 mm 0.0 W/m2
01:59 8.5 °C 4.3 °C 1019.9 hPa Calm     75% 0 mm 0.0 W/m2
02:04 8.4 °C 4.6 °C 1019.9 hPa Calm     77% 0 mm 0.0 W/m2
02:10 8.4 °C 4.8 °C 1020.2 hPa Calm     78% 0 mm 0.0 W/m2
02:15 8.6 °C 4.8 °C 1019.9 hPa Calm     77% 0 mm 0.0 W/m2
02:20 8.6 °C 4.8 °C 1020.2 hPa Calm     77% 0 mm 0.0 W/m2
02:30 8.5 °C 4.3 °C 1020.2 hPa Calm     75% 0 mm 0.0 W/m2
02:36 8.4 °C 4.6 °C 1020.2 hPa Calm     77% 0 mm 0.0 W/m2
02:41 8.3 °C 3.9 °C 1020.2 hPa Calm     74% 0 mm 0.0 W/m2
02:46 8.1 °C 4.1 °C 1020.2 hPa Calm     76% 0 mm 0.0 W/m2
02:51 8 °C 4.2 °C 1020.2 hPa Calm     77% 0 mm 0.0 W/m2
02:56 7.9 °C 4.3 °C 1020.2 hPa Calm     78% 0 mm 0.0 W/m2
03:01 7.8 °C 4 °C 1020.2 hPa Calm     77% 0 mm 0.0 W/m2
03:06 7.7 °C 3.9 °C 1020.2 hPa Calm     77% 0 mm 0.0 W/m2
03:11 7.6 °C 4 °C 1020.2 hPa Calm     78% 0 mm 0.0 W/m2
03:17 7.5 °C 4.3 °C 1020.2 hPa Calm     80% 0 mm 0.0 W/m2
03:22 7.5 °C 4.3 °C 1020.2 hPa Calm     80% 0 mm 0.0 W/m2
03:38 7.5 °C 4.6 °C 1020.5 hPa Calm     82% 0 mm 0.0 W/m2
03:48 7.4 °C 4.2 °C 1020.5 hPa Calm     80% 0 mm 0.0 W/m2
03:53 7.2 °C 3.8 °C 1020.5 hPa Calm     79% 0 mm 0.0 W/m2
03:59 7.1 °C 4.1 °C 1020.5 hPa Calm     81% 0 mm 0.0 W/m2
04:04 6.9 °C 3.5 °C 1020.5 hPa Calm     79% 0 mm 0.0 W/m2
04:09 6.8 °C 3.8 °C 1020.5 hPa Calm     81% 0 mm 0.0 W/m2
04:14 6.8 °C 3.6 °C 1020.5 hPa Calm     80% 0 mm 0.0 W/m2
04:19 6.7 °C 3.3 °C 1020.5 hPa Calm     79% 0 mm 0.0 W/m2
04:29 6.5 °C 3.1 °C 1020.5 hPa Calm     79% 0 mm 0.0 W/m2
04:35 6.3 °C 2.9 °C 1020.5 hPa Calm     79% 0 mm 0.0 W/m2
04:40 6.3 °C 2.9 °C 1020.9 hPa Calm     79% 0 mm 0.0 W/m2
04:52 6.2 °C 3 °C 1020.9 hPa Calm     80% 0 mm 0.0 W/m2
04:57 6.1 °C 2.7 °C 1020.9 hPa Calm     79% 0 mm 0.0 W/m2
05:02 6.1 °C 2.6 °C 1021.2 hPa Calm     78% 0 mm 0.0 W/m2
05:12 6.1 °C 2.4 °C 1021.2 hPa Calm     77% 0 mm 0.0 W/m2
05:17 6 °C 2.3 °C 1021.2 hPa Calm     77% 0 mm 0.0 W/m2
05:22 5.9 °C 2 °C 1021.2 hPa Calm     76% 0 mm 0.0 W/m2
05:28 5.9 °C 1.8 °C 1021.2 hPa Calm     75% 0 mm 0.0 W/m2
05:33 5.8 °C 1.5 °C 1021.2 hPa Calm     74% 0 mm 0.0 W/m2
05:42 5.6 °C 1 °C 1021.2 hPa Calm     72% 0 mm 0.0 W/m2
05:52 5.6 °C 0.8 °C 1021.2 hPa Calm     71% 0 mm 0.0 W/m2
05:58 5.4 °C 0.6 °C 1021.6 hPa Calm     71% 0 mm 0.0 W/m2
06:03 5.4 °C 0.4 °C 1021.6 hPa Calm     70% 0 mm 0.0 W/m2
06:09 5.4 °C 0.4 °C 1021.6 hPa Calm     70% 0 mm 0.0 W/m2
06:19 5.3 °C 0.3 °C 1021.9 hPa Calm     70% 0 mm 0.0 W/m2
06:40 5.2 °C 0.2 °C 1021.9 hPa Calm     70% 0 mm 9.0 W/m2
06:46 5.2 °C 0.2 °C 1022.2 hPa Calm     70% 0 mm 12.0 W/m2
06:49 5.2 °C 0.2 °C 1022.2 hPa Calm     70% 0 mm 16.0 W/m2
06:57 5.3 °C 0.3 °C 1021.9 hPa Calm     70% 0 mm 18.0 W/m2
07:42 9.2 °C 1.8 °C 1022.6 hPa Calm     60% 0 mm 137.0 W/m2
08:04 10.8 °C 2.1 °C 1022.9 hPa Calm     55% 0 mm 223.0 W/m2
08:14 11.3 °C 2.1 °C 1022.9 hPa Calm     53% 0 mm 253.0 W/m2
08:24 11.8 °C 2.5 °C 1022.9 hPa Calm     53% 0 mm 283.0 W/m2
08:33 13.7 °C 3.2 °C 1022.9 hPa Calm     49% 0 mm 315.0 W/m2
12:12 21.9 °C 3.5 °C 1021.6 hPa West 3.2 km/h 6.4 km/h 30% 0 mm 629.0 W/m2
12:27 22.4 °C 3.5 °C 1021.2 hPa West 3.2 km/h 9.7 km/h 29% 0 mm 622.0 W/m2
12:39 22.8 °C 3.8 °C 1020.9 hPa West 6.4 km/h 11.3 km/h 29% 0 mm 613.0 W/m2
12:49 23.1 °C 3.1 °C 1020.9 hPa West 9.7 km/h 16.1 km/h 27% 0 mm 605.0 W/m2
12:54 23.2 °C 3.2 °C 1020.5 hPa WNW 4.7 km/h 22.5 km/h 27% 0 mm 601.0 W/m2
12:59 23.2 °C 3.2 °C 1020.5 hPa WNW 17.7 km/h 17.7 km/h 27% 0 mm 596.0 W/m2
13:06 23.4 °C 2.8 °C 1020.5 hPa WNW 1.4 km/h 12.9 km/h 26% 0 mm 591.0 W/m2
13:17 24 °C 2.8 °C 1020.5 hPa WNW 13 km/h 13 km/h 25% 0 mm 584.0 W/m2
13:28 24.2 °C 1.8 °C 1020.2 hPa Calm   11.3 km/h 23% 0 mm 564.0 W/m2
13:40 24.7 °C 0.9 °C 1020.2 hPa WNW 7.9 km/h 19.3 km/h 21% 0 mm 543.0 W/m2
13:48 25 °C 1.2 °C 1020.2 hPa Calm   12.9 km/h 21% 0 mm 524.0 W/m2
13:55 25.1 °C 1.2 °C 1019.9 hPa WNW 7.9 km/h 12.9 km/h 21% 0 mm 513.0 W/m2
14:01 24.9 °C 1.1 °C 1019.9 hPa Calm   16.1 km/h 21% 0 mm 504.0 W/m2
14:14 25.1 °C 1.2 °C 1019.9 hPa WNW 7.9 km/h 17.7 km/h 21% 0 mm 483.0 W/m2
15:08 25.7 °C -0.4 °C 1019.5 hPa Calm     18% 0 mm 346.0 W/m2
15:19 25.8 °C -0.3 °C 1019.5 hPa Calm     18% 0 mm 320.0 W/m2
15:34 25.7 °C -0.4 °C 1019.5 hPa Calm     18% 0 mm 279.0 W/m2
16:05 26.1 °C -0.1 °C 1019.2 hPa Calm     18% 0 mm 186.0 W/m2
16:21 25.9 °C -0.2 °C 1019.5 hPa Calm     18% 0 mm 132.0 W/m2
16:35 25.7 °C -0.4 °C 1019.5 hPa Calm     18% 0 mm 83.0 W/m2
16:47 25.3 °C -0.7 °C 1019.5 hPa Calm     18% 0 mm 54.0 W/m2
17:12 24.3 °C -0.8 °C 1019.5 hPa Calm     19% 0 mm 12.0 W/m2
17:27 22.4 °C 3.5 °C 1019.5 hPa WNW 6.4 km/h 11.3 km/h 29% 0 mm 0.0 W/m2
17:43 21.4 °C 3.6 °C 1019.5 hPa WNW 4.7 km/h 8 km/h 31% 0 mm 0.0 W/m2
18:14 20.2 °C 4.2 °C 1020.2 hPa West 16.3 km/h 20.9 km/h 35% 0 mm 0.0 W/m2
18:40 19.5 °C 4 °C 1020.5 hPa West 13 km/h 17.7 km/h 36% 0 mm 0.0 W/m2
18:55 19.1 °C 4.1 °C 1020.9 hPa West 7.9 km/h 12.9 km/h 37% 0 mm 0.0 W/m2
19:10 18.6 °C 4.7 °C 1020.9 hPa West 13 km/h 14.5 km/h 40% 0 mm 0.0 W/m2
19:25 18.4 °C 4.2 °C 1021.2 hPa West 9.7 km/h 12.9 km/h 39% 0 mm 0.0 W/m2
19:55 16.7 °C 3.7 °C 1021.2 hPa West 6.4 km/h 9.7 km/h 42% 0 mm 0.0 W/m2
20:35 16 °C 3.1 °C 1021.6 hPa West 7.9 km/h 9.7 km/h 42% 0 mm 0.0 W/m2
20:49 15.3 °C 2.5 °C 1021.6 hPa Calm     42% 0 mm 0.0 W/m2
20:59 15.1 °C 2.6 °C 1021.6 hPa Calm     43% 0 mm 0.0 W/m2
21:07 15.1 °C 2.6 °C 1021.6 hPa Calm     43% 0 mm 0.0 W/m2
21:16 14.6 °C 2.5 °C 1021.6 hPa Calm     44% 0 mm 0.0 W/m2
21:21 14.4 °C 2.3 °C 1021.6 hPa Calm     44% 0 mm 0.0 W/m2
21:32 14.3 °C 2.5 °C 1021.6 hPa Calm     45% 0 mm 0.0 W/m2
21:38 13.9 °C 2.2 °C 1021.6 hPa Calm     45% 0 mm 0.0 W/m2
21:43 13.7 °C 2.3 °C 1021.6 hPa Calm     46% 0 mm 0.0 W/m2
21:48 13.5 °C 2.4 °C 1021.6 hPa Calm     47% 0 mm 0.0 W/m2
21:53 13.3 °C 2.2 °C 1021.6 hPa Calm     47% 0 mm 0.0 W/m2
21:59 13.1 °C 2.3 °C 1021.6 hPa Calm     48% 0 mm 0.0 W/m2
22:03 13.1 °C 2.3 °C 1021.6 hPa Calm     48% 0 mm 0.0 W/m2
22:10 12.9 °C 2.2 °C 1021.6 hPa Calm     48% 0 mm 0.0 W/m2
22:15 12.6 °C 1.9 °C 1021.6 hPa Calm     48% 0 mm 0.0 W/m2
22:56 11.7 °C 1.6 °C 1021.6 hPa Calm     50% 0 mm 0.0 W/m2
23:01 11.6 °C 1.5 °C 1021.6 hPa Calm     50% 0 mm 0.0 W/m2
23:06 11.4 °C 1.3 °C 1021.6 hPa Calm     50% 0 mm 0.0 W/m2
23:11 11.2 °C 1.2 °C 1021.6 hPa Calm     50% 0 mm 0.0 W/m2
23:16 11 °C 1.2 °C 1021.6 hPa Calm     51% 0 mm 0.0 W/m2
23:21 10.8 °C 1.1 °C 1021.6 hPa Calm     51% 0 mm 0.0 W/m2
23:27 10.6 °C 1.1 °C 1021.6 hPa Calm     52% 0 mm 0.0 W/m2
23:37 10.3 °C 1.1 °C 1021.6 hPa Calm     53% 0 mm 0.0 W/m2
23:42 10.3 °C 1.7 °C 1021.2 hPa Calm     55% 0 mm 0.0 W/m2
23:47 10.2 °C 1.3 °C 1021.2 hPa Calm     54% 0 mm 0.0 W/m2
23:53 10 °C 1.1 °C 1021.2 hPa Calm     54% 0 mm 0.0 W/m2
23:58 9.9 °C 1.5 °C 1021.6 hPa Calm     56% 0 mm 0.0 W/m2
Canyon Roadhouse, Fishriver Canyon, Namibia
Compliments of Weather Underground - 2.25 mb